• Join FlightAware (Why Join?)
  • Login
  • US Flag 
12:03AM EDT


 

Airport Tracker/Info


-or-


 

Live Flight TrackerFlight Track Log ✈ N508QS ✈ 09-Jun-2013 ✈ KTEB - EDDF / FRA

Flight Track Log - Related Links

Times and Time Zones

All times are in EDT time to prevent confusion due to time zone crossing. See the N508QS flight status page for this flight to view local times or setup timezone preferences in your user account.

Time Position Orientation Groundspeed Altitude Reporting Facility
EDT Latitude Longitude Course Direction KTS MPH feet Rate Location/Type
05:46PM 40.8167 -74.1167 56° Northeast 198 228 1,500  Level New York TRACON
05:47PM 40.8167 -74.2000 270° West 234 269 3,000 2,280 Climbing New York TRACON
05:48PM 40.8500 -74.2500 311° West 275 316 5,900 1,500 Climbing New York TRACON
05:49PM 40.9333 -74.2333 North 277 319 6,000  Climbing New York TRACON
05:50PM 41.0167 -74.2000 17° North 278 320 6,000 840 Level New York TRACON
05:51PM 41.5237 -72.7859 56° Northeast  Level FlightAware Approximate
05:51PM 41.0833 -74.1667 21° North 278 320 7,600  Level New York TRACON
05:52PM 41.1500 -74.1167 29° Northeast 293 337 11,300 2,760 Climbing New York TRACON
05:53PM 41.1333 -73.9750 99° East 323 372 15,000 1,440 Climbing Boston Center
05:54PM 41.0869 -73.8556 117° Southeast 322 371 15,000 180 Level Boston Center
05:55PM 41.1258 -73.7461 65° Northeast 329 379 15,400 1,140 Climbing Boston Center
05:56PM 41.1856 -73.6011 61° Northeast 369 425 17,300 2,040 Climbing Boston Center
05:57PM 41.2475 -73.4589 60° Northeast 418 481 19,500 2,220 Climbing Boston Center
05:58PM 41.3239 -73.2831 60° Northeast 445 512 22,200 1,980 Climbing Boston Center
05:59PM 41.3769 -73.1483 62° Northeast 450 518 23,900 1,920 Climbing Boston Center
06:00PM 41.4319 -72.9828 66° East 468 539 26,100 1,980 Climbing Boston Center
06:01PM 41.4869 -72.8086 67° East 490 564 27,900 1,680 Climbing Boston Center
06:02PM 41.5394 -72.6342 68° East 502 578 29,500 1,500 Climbing Boston Center
06:03PM 41.5958 -72.4511 68° East 512 589 31,000 1,800 Climbing Boston Center
06:04PM 41.6561 -72.2678 66° East 525 604 33,100 1,980 Climbing Boston Center
06:05PM 41.7122 -72.0842 68° East 530 610 35,000 1,680 Climbing Boston Center
06:06PM 41.7697 -71.9000 67° East 530 610 36,500 1,200 Climbing Boston Center
06:07PM 41.8269 -71.7131 68° East 536 617 37,500 1,020 Climbing Boston Center
06:08PM 41.8903 -71.5253 66° East 536 617 38,600 1,140 Climbing Boston Center
06:09PM 41.9469 -71.3375 68° East 536 617 39,800 1,200 Climbing Boston Center
06:10PM 42.0033 -71.1467 68° East 541 623 41,000 600 Climbing Boston Center
06:11PM 42.0614 -70.9525 68° East 541 623 41,000  Level Boston Center
06:12PM 42.1189 -70.7494 69° East 554 638 41,000  Level Boston Center
06:13PM 42.1783 -70.5519 68° East 565 650 41,000  Level Boston Center
06:15PM 42.2353 -70.3567 68° East 565 650 41,000  Level Boston Center
06:16PM 42.3158 -70.0983 67° East 560 644 41,000  Level Boston Center
06:17PM 42.3678 -69.8969 71° East 560 644 41,000  Level Boston Center
06:18PM 42.4236 -69.7006 69° East 560 644 41,000  Level Boston Center
06:19PM 42.4811 -69.5008 69° East 560 644 41,000  Level Boston Center
06:20PM 42.5342 -69.3011 70° East 554 638 41,000  Level Boston Center
06:21PM 42.5931 -69.1033 68° East 559 643 41,000  Level Boston Center
06:21PM 42.6000 -69.0333 82° East 570 656 41,000  Level Moncton Center
06:22PM 42.6456 -68.9058 64° Northeast 559 643 41,000  Level Boston Center
06:23PM 42.7017 -68.7047 69° East 559 643 41,000  Level Boston Center
06:23PM 42.7167 -68.6167 77° East 560 644 41,000  Level Moncton Center
06:24PM 42.7667 -68.4167 71° East 560 644 41,000  Level Moncton Center
06:25PM 42.8033 -68.3306 60° Northeast 559 643 41,000  Level Boston Center
06:26PM 42.8544 -68.1317 71° East 554 638 41,000  Level Boston Center
06:26PM 42.8667 -68.0167 82° East 560 644 41,000  Level Moncton Center
06:27PM 42.9092 -67.9319 56° Northeast 559 643 41,000  Level Boston Center
06:28PM 42.9614 -67.7267 71° East 559 643 41,000  Level Boston Center
06:29PM 43.0136 -67.5294 70° East 559 643 41,000  Level Boston Center
06:29PM 43.0500 -67.3667 73° East 570 656 41,000  Level Moncton Center
06:30PM 43.1000 -67.1667 71° East 570 656 41,000  Level Moncton Center
06:31PM 43.1500 -66.9667 71° East 570 656 41,000  Level Moncton Center
06:32PM 43.2333 -66.7667 60° Northeast 560 644 41,000  Level Moncton Center
06:33PM 43.3000 -66.5833 63° Northeast 570 656 41,000  Level Moncton Center
06:34PM 43.3667 -66.4000 63° Northeast 570 656 41,000  Level Moncton Center
06:35PM 43.4333 -66.2000 65° Northeast 570 656 41,000  Level Moncton Center
06:36PM 43.5167 -66.0167 58° Northeast 570 656 41,000  Level Moncton Center
06:37PM 43.6000 -65.8000 62° Northeast 570 656 41,000  Level Moncton Center
06:39PM 43.7500 -65.4167 61° Northeast 570 656 41,000  Level Moncton Center
06:40PM 43.8167 -65.2333 63° Northeast 570 656 41,000  Level Moncton Center
06:42PM 43.9500 -64.8500 64° Northeast 580 667 41,000  Level Gander Center
06:43PM 44.0333 -64.6167 64° Northeast 590 679 41,000  Level Gander Center
06:44PM 44.1000 -64.4167 65° Northeast 580 667 41,000  Level Moncton Center
06:45PM 44.1667 -64.2333 63° Northeast 580 667 41,000  Level Moncton Center
06:46PM 44.2500 -64.0167 62° Northeast 580 667 41,000  Level Moncton Center
06:47PM 44.3167 -63.8333 63° Northeast 580 667 41,000  Level Moncton Center
06:48PM 44.4000 -63.6000 63° Northeast 580 667 41,000  Level Moncton Center
06:49PM 44.4667 -63.4167 63° Northeast 580 667 41,000  Level Moncton Center
06:50PM 44.5333 -63.2000 67° East 580 667 41,000  Level Moncton Center
06:51PM 44.6000 -63.0167 63° Northeast 580 667 41,000  Level Moncton Center
06:52PM 44.6833 -62.8000 62° Northeast 570 656 41,000  Level Moncton Center
06:53PM 44.7333 -62.6000 71° East 570 656 41,000  Level Moncton Center
06:54PM 44.8000 -62.4167 63° Northeast 570 656 41,000  Level Moncton Center
06:55PM 44.8667 -62.2000 66° East 570 656 41,000  Level Gander Center
06:56PM 44.9333 -61.9833 66° East 570 656 41,000  Level Gander Center
06:57PM 45.0167 -61.8000 57° Northeast 570 656 41,000  Level Gander Center
06:58PM 45.0833 -61.5833 66° East 570 656 41,000  Level Gander Center
06:59PM 45.1500 -61.3833 65° Northeast 570 656 41,000  Level Gander Center
07:00PM 45.2167 -61.1833 65° Northeast 570 656 41,000  Level Gander Center
07:01PM 45.2833 -60.9667 66° East 570 656 41,000  Level Gander Center
07:02PM 45.3500 -60.7667 65° Northeast 570 656 41,000  Level Gander Center
07:03PM 45.4000 -60.5500 72° East 570 656 41,000  Level Gander Center
07:04PM 45.4667 -60.3500 65° Northeast 570 656 41,000  Level Gander Center
07:05PM 45.5333 -60.1333 66° East 570 656 41,000  Level Gander Center
07:06PM 45.5833 -59.9500 69° East 570 656 41,000  Level Gander Center
07:07PM 45.6667 -59.7333 61° Northeast 570 656 41,000  Level Gander Center
07:08PM 45.7167 -59.5167 72° East 570 656 41,000  Level Gander Center
07:09PM 45.8000 -59.3167 59° Northeast 570 656 41,000  Level Gander Center
07:10PM 45.8333 -59.1000 77° East 570 656 41,000  Level Gander Center
07:11PM 45.9000 -58.8833 66° East 570 656 41,000  Level Gander Center
07:12PM 45.9667 -58.6833 64° Northeast 570 656 41,000  Level Gander Center
07:13PM 46.0167 -58.4667 72° East 570 656 41,000  Level Gander Center
07:14PM 46.0833 -58.2500 66° East 570 656 41,000  Level Gander Center
07:15PM 46.1500 -58.0333 66° East 570 656 41,000  Level Gander Center
07:16PM 46.2000 -57.8333 70° East 570 656 41,000  Level Gander Center
07:17PM 46.2667 -57.6333 64° Northeast 570 656 41,000  Level Gander Center
07:18PM 46.3333 -57.4167 66° East 570 656 41,000  Level Gander Center
07:19PM 46.3833 -57.2000 71° East 570 656 41,000  Level Gander Center
07:20PM 46.4500 -56.9667 67° East 570 656 41,000  Level Gander Center
07:22PM 46.5667 -56.5667 67° East 560 644 41,000  Level Gander Center
07:23PM 46.6000 -56.3500 77° East 560 644 41,000  Level Gander Center
07:24PM 46.6500 -56.1167 73° East 570 656 41,000  Level Gander Center
07:25PM 46.7167 -55.9000 66° East 570 656 41,000  Level Gander Center
07:26PM 46.7667 -55.6667 73° East 570 656 41,000  Level Gander Center
07:27PM 46.8333 -55.4667 64° Northeast 570 656 41,000  Level Gander Center
07:28PM 46.8667 -55.2500 77° East 570 656 41,000  Level Gander Center
07:29PM 46.9167 -55.0167 73° East 570 656 41,000  Level Gander Center
07:30PM 46.9667 -54.8167 70° East 570 656 41,000  Level Gander Center
07:31PM 47.0333 -54.5833 67° East 570 656 41,000  Level Gander Center
07:32PM 47.0833 -54.3833 70° East 570 656 41,000  Level Gander Center
07:33PM 47.1167 -54.1667 77° East 560 644 41,000  Level Gander Center
07:34PM 47.1667 -53.9333 72° East 560 644 41,000  Level Gander Center
07:35PM 47.2167 -53.7333 70° East 570 656 41,000  Level Gander Center
07:36PM 47.2667 -53.5000 72° East 570 656 41,000  Level Gander Center
07:37PM 47.3333 -53.2833 66° East 570 656 41,000  Level Gander Center
07:38PM 47.3833 -53.0667 71° East 560 644 41,000  Level Gander Center
07:39PM 47.4167 -52.8333 78° East 570 656 41,000  Level Gander Center
07:40PM 47.4500 -52.6000 78° East 570 656 41,000  Level Gander Center
07:41PM 48.0000 -50.0000 86° East 559 643 41,000  Level ETMS Enhanced Traffic Management System
07:41PM 47.5167 -52.4000 86° East 570 656 41,000  Level Gander Center
07:42PM 47.5500 -52.1667 78° East 570 656 41,000  Level Gander Center
07:43PM 47.6000 -51.9500 71° East 570 656 41,000  Level Gander Center
07:44PM 47.6500 -51.7167 72° East 570 656 41,000  Level Gander Center
07:45PM 47.6833 -51.4833 78° East 570 656 41,000  Level Gander Center
07:46PM 47.7333 -51.2833 70° East 570 656 41,000  Level Gander Center
07:47PM 47.7833 -51.0500 72° East 570 656 41,000  Level Gander Center
07:48PM 47.8167 -50.8167 78° East 570 656 41,000  Level Gander Center
07:49PM 47.8667 -50.5833 72° East 570 656 41,000  Level Gander Center
07:50PM 47.9000 -50.3667 77° East 570 656 41,000  Level Gander Center
07:51PM 47.9500 -50.1333 72° East 570 656 41,000  Level Gander Center
07:52PM 47.9833 -49.9000 78° East 570 656 41,000  Level Gander Center
07:53PM 48.0000 -49.6667 84° East 570 656 41,000  Level Gander Center
07:54PM 48.0000 -49.4333 90° East 570 656 41,000  Level Gander Center
07:55PM 48.0167 -49.1833 84° East 560 644 41,000  Level Gander Center
07:56PM 48.0167 -48.9500 90° East 570 656 41,000  Level Gander Center
07:57PM 48.0000 -50.0000 86° East 573 659 41,000  Level ETMS Enhanced Traffic Management System
07:57PM 48.0333 -48.7500 86° East 570 656 41,000  Level Gander Center
07:58PM 48.0333 -48.5000 90° East 570 656 41,000  Level Gander Center
07:59PM 48.0500 -48.2667 84° East 570 656 41,000  Level Gander Center
08:00PM 48.0500 -48.0167 90° East 570 656 41,000  Level Gander Center
08:01PM 48.0500 -47.9667 90° East 570 656 41,000  Level Gander Center
08:02PM 48.0667 -47.7167 84° East 570 656 41,000  Level Gander Center
08:02PM 48.0667 -47.5667 90° East 570 656 41,000  Level Gander Center
08:03PM 48.0667 -47.3333 90° East 560 644 41,000  Level Gander Center
08:04PM 48.0667 -47.1000 90° East 560 644 41,000  Level Gander Center
08:05PM 48.0667 -46.8667 90° East 560 644 41,000  Level Gander Center
08:06PM 48.0833 -46.6500 83° East 560 644 41,000  Level Gander Center
08:07PM 48.0833 -46.4333 90° East 560 644 41,000  Level Gander Center
08:09PM 48.0869 -46.1754 89° East  Level FlightAware Approximate
08:16PM 48.0962 -44.6707 89° East  Level FlightAware Approximate
08:17PM 48.0960 -44.4557 90° East  Level FlightAware Approximate
08:18PM 48.0953 -44.2407 90° East  Level FlightAware Approximate
08:19PM 48.0942 -44.0257 90° East  Level FlightAware Approximate
08:20PM 48.0928 -43.8108 91° East  Level FlightAware Approximate
08:21PM 48.0909 -43.5958 91° East  Level FlightAware Approximate
08:22PM 48.0886 -43.3809 91° East  Level FlightAware Approximate
08:23PM 48.0859 -43.1660 91° East  Level FlightAware Approximate
08:24PM 48.0829 -42.9511 91° East  Level FlightAware Approximate
08:25PM 48.0794 -42.7362 91° East  Level FlightAware Approximate
08:26PM 48.0755 -42.5214 91° East  Level FlightAware Approximate
08:27PM 48.0712 -42.3066 92° East  Level FlightAware Approximate
08:28PM 48.0666 -42.0918 92° East  Level FlightAware Approximate
08:29PM 48.0615 -41.8771 92° East  Level FlightAware Approximate
08:30PM 48.0560 -41.6624 92° East  Level FlightAware Approximate
08:31PM 48.0501 -41.4478 92° East  Level FlightAware Approximate
08:32PM 48.0438 -41.2332 92° East  Level FlightAware Approximate
08:33PM 48.0372 -41.0187 93° East  Level FlightAware Approximate
08:34PM 48.0301 -40.8042 93° East  Level FlightAware Approximate
08:35PM 48.0226 -40.5898 93° East  Level FlightAware Approximate
08:36PM 48.0148 -40.3754 93° East  Level FlightAware Approximate
08:37PM 48.0065 -40.1612 93° East  Level FlightAware Approximate
08:37PM 48.0000 -40.0000 78° East 535 616 41,000  Level ETMS Enhanced Traffic Management System
08:38PM 48.0075 -39.9485 78° East  Level FlightAware Approximate
08:39PM 48.0378 -39.7386 78° East  Level FlightAware Approximate
08:40PM 48.0678 -39.5285 78° East  Level FlightAware Approximate
08:41PM 48.0973 -39.3182 78° East  Level FlightAware Approximate
08:42PM 48.1265 -39.1077 78° East  Level FlightAware Approximate
08:43PM 48.2688 -38.0341 79° East 535 616 41,000  Level FlightAware Transoceanic
08:44PM 48.2966 -37.8144 79° East 535 616 41,000  Level FlightAware Transoceanic
08:45PM 48.3240 -37.5945 79° East 535 616 41,000  Level FlightAware Transoceanic
08:46PM 48.3509 -37.3744 80° East 535 616 41,000  Level FlightAware Transoceanic
08:47PM 48.3774 -37.1540 80° East 535 616 41,000  Level FlightAware Transoceanic
08:48PM 48.4036 -36.9334 80° East 535 616 41,000  Level FlightAware Transoceanic
08:49PM 48.4292 -36.7125 80° East 535 616 41,000  Level FlightAware Transoceanic
08:50PM 48.4545 -36.4915 80° East 535 616 41,000  Level FlightAware Transoceanic
08:51PM 48.4794 -36.2702 80° East 535 616 41,000  Level FlightAware Transoceanic
08:52PM 48.5038 -36.0487 81° East 535 616 41,000  Level FlightAware Transoceanic
08:53PM 48.5278 -35.8270 81° East 535 616 41,000  Level FlightAware Transoceanic
08:54PM 48.5513 -35.6051 81° East 535 616 41,000  Level FlightAware Transoceanic
08:55PM 48.5745 -35.3830 81° East 535 616 41,000  Level FlightAware Transoceanic
08:56PM 48.5972 -35.1607 81° East 535 616 41,000  Level FlightAware Transoceanic
08:57PM 48.6195 -34.9382 81° East 535 616 41,000  Level FlightAware Transoceanic
08:58PM 48.6413 -34.7155 82° East 535 616 41,000  Level FlightAware Transoceanic
08:59PM 48.6627 -34.4926 82° East 535 616 41,000  Level FlightAware Transoceanic
09:00PM 48.6837 -34.2695 82° East 535 616 41,000  Level FlightAware Transoceanic
09:01PM 48.7043 -34.0462 82° East 535 616 41,000  Level FlightAware Transoceanic
09:02PM 48.7244 -33.8228 82° East 535 616 41,000  Level FlightAware Transoceanic
09:03PM 48.7441 -33.5991 82° East 535 616 41,000  Level FlightAware Transoceanic
09:04PM 48.7634 -33.3753 83° East 535 616 41,000  Level FlightAware Transoceanic
09:05PM 48.7822 -33.1513 83° East 535 616 41,000  Level FlightAware Transoceanic
09:06PM 48.8006 -32.9272 83° East 535 616 41,000  Level FlightAware Transoceanic
09:07PM 48.8186 -32.7029 83° East 535 616 41,000  Level FlightAware Transoceanic
09:08PM 48.8361 -32.4785 83° East 535 616 41,000  Level FlightAware Transoceanic
09:09PM 48.8532 -32.2538 83° East 535 616 41,000  Level FlightAware Transoceanic
09:10PM 48.8699 -32.0291 84° East 535 616 41,000  Level FlightAware Transoceanic
09:11PM 48.8861 -31.8042 84° East 535 616 41,000  Level FlightAware Transoceanic
09:12PM 48.9018 -31.5791 84° East 535 616 41,000  Level FlightAware Transoceanic
09:13PM 48.9172 -31.3539 84° East 535 616 41,000  Level FlightAware Transoceanic
09:14PM 48.9321 -31.1286 84° East 535 616 41,000  Level FlightAware Transoceanic
09:15PM 48.9465 -30.9031 85° East 535 616 41,000  Level FlightAware Transoceanic
09:16PM 48.9606 -30.6775 85° East 535 616 41,000  Level FlightAware Transoceanic
09:17PM 48.9742 -30.4518 85° East 535 616 41,000  Level FlightAware Transoceanic
09:18PM 48.9873 -30.2260 85° East 535 616 41,000  Level FlightAware Transoceanic
09:19PM 48.9996 -30.0079 85° East  Level FlightAware Approximate
09:19PM 49.0000 -30.0000 77° East 549 632 41,000  Level ETMS Enhanced Traffic Management System
09:19PM 49.0000 -30.0000 77° East 549 632 41,000  Level ETMS Enhanced Traffic Management System
09:20PM 49.0115 -29.7898 85° East  Level FlightAware Approximate
09:21PM 49.0287 -29.8018 77° East  Level FlightAware Approximate
09:22PM 49.0593 -29.5877 78° East  Level FlightAware Approximate
09:23PM 49.0896 -29.3734 78° East  Level FlightAware Approximate
09:24PM 49.1194 -29.1589 78° East  Level FlightAware Approximate
09:25PM 49.2508 -28.1730 79° East 549 632 41,000  Level FlightAware Transoceanic
09:26PM 49.2801 -27.9434 79° East 549 632 41,000  Level FlightAware Transoceanic
09:27PM 49.3090 -27.7135 79° East 549 632 41,000  Level FlightAware Transoceanic
09:28PM 49.3374 -27.4833 79° East 549 632 41,000  Level FlightAware Transoceanic
09:29PM 49.3653 -27.2529 80° East 549 632 41,000  Level FlightAware Transoceanic
09:30PM 49.3928 -27.0222 80° East 549 632 41,000  Level FlightAware Transoceanic
09:31PM 49.4199 -26.7912 80° East 549 632 41,000  Level FlightAware Transoceanic
09:32PM 49.4464 -26.5600 80° East 549 632 41,000  Level FlightAware Transoceanic
09:33PM 49.4725 -26.3285 80° East 549 632 41,000  Level FlightAware Transoceanic
09:34PM 49.4982 -26.0968 80° East 549 632 41,000  Level FlightAware Transoceanic
09:35PM 49.5234 -25.8649 81° East 549 632 41,000  Level FlightAware Transoceanic
09:36PM 49.5481 -25.6327 81° East 549 632 41,000  Level FlightAware Transoceanic
09:37PM 49.5723 -25.4003 81° East 549 632 41,000  Level FlightAware Transoceanic
09:38PM 49.5961 -25.1676 81° East 549 632 41,000  Level FlightAware Transoceanic
09:39PM 49.6194 -24.9348 81° East 549 632 41,000  Level FlightAware Transoceanic
09:40PM 49.6423 -24.7017 81° East 549 632 41,000  Level FlightAware Transoceanic
09:41PM 49.6647 -24.4684 82° East 549 632 41,000  Level FlightAware Transoceanic
09:42PM 49.6866 -24.2348 82° East 549 632 41,000  Level FlightAware Transoceanic
09:43PM 49.7080 -24.0011 82° East 549 632 41,000  Level FlightAware Transoceanic
09:44PM 49.7290 -23.7672 82° East 549 632 41,000  Level FlightAware Transoceanic
09:45PM 49.7495 -23.5330 82° East 549 632 41,000  Level FlightAware Transoceanic
09:46PM 49.7695 -23.2987 83° East 549 632 41,000  Level FlightAware Transoceanic
09:47PM 49.7891 -23.0642 83° East 549 632 41,000  Level FlightAware Transoceanic
09:48PM 49.8082 -22.8295 83° East 549 632 41,000  Level FlightAware Transoceanic
09:49PM 49.8268 -22.5946 83° East 549 632 41,000  Level FlightAware Transoceanic
09:50PM 49.8449 -22.3595 83° East 549 632 41,000  Level FlightAware Transoceanic
09:51PM 49.8626 -22.1243 83° East 549 632 41,000  Level FlightAware Transoceanic
09:52PM 49.8798 -21.8889 84° East 549 632 41,000  Level FlightAware Transoceanic
09:53PM 49.8965 -21.6533 84° East 549 632 41,000  Level FlightAware Transoceanic
09:54PM 49.9127 -21.4176 84° East 549 632 41,000  Level FlightAware Transoceanic
09:55PM 49.9284 -21.1817 84° East 549 632 41,000  Level FlightAware Transoceanic
09:56PM 49.9437 -20.9456 84° East 549 632 41,000  Level FlightAware Transoceanic
09:57PM 49.9585 -20.7094 85° East 549 632 41,000  Level FlightAware Transoceanic
09:58PM 49.9728 -20.4731 85° East 549 632 41,000  Level FlightAware Transoceanic
09:59PM 49.9866 -20.2366 85° East 549 632 41,000 60 Level FlightAware Transoceanic
10:00PM 49.9992 -20.0141 85° East  Level FlightAware Approximate
10:01PM 50.0113 -19.7915 85° East  Level FlightAware Approximate
10:02PM 50.0201 -19.8074 81° East  Level FlightAware Approximate
10:03PM 50.0427 -19.5867 81° East  Level FlightAware Approximate
10:04PM 50.0648 -19.3657 81° East  Level FlightAware Approximate
10:05PM 50.0866 -19.1446 81° East  Level FlightAware Approximate
10:06PM 50.1079 -18.9232 81° East  Level FlightAware Approximate
10:07PM 50.1289 -18.7017 82° East  Level FlightAware Approximate
10:08PM 50.1494 -18.4799 82° East  Level FlightAware Approximate
10:09PM 50.1694 -18.2580 82° East  Level FlightAware Approximate
10:10PM 50.1891 -18.0359 82° East  Level FlightAware Approximate
10:11PM 50.2083 -17.8136 82° East  Level FlightAware Approximate
10:12PM 50.2271 -17.5911 82° East  Level FlightAware Approximate
10:13PM 50.2455 -17.3685 83° East  Level FlightAware Approximate
10:14PM 50.2635 -17.1457 83° East  Level FlightAware Approximate
10:15PM 50.2810 -16.9227 83° East  Level FlightAware Approximate
10:16PM 50.2981 -16.6996 83° East  Level FlightAware Approximate
10:17PM 50.3148 -16.4763 83° East  Level FlightAware Approximate
10:18PM 50.3310 -16.2528 83° East  Level FlightAware Approximate
10:19PM 50.3468 -16.0292 84° East  Level FlightAware Approximate
10:20PM 50.3622 -15.8055 84° East  Level FlightAware Approximate
10:21PM 50.3772 -15.5816 84° East  Level FlightAware Approximate
10:22PM 50.3917 -15.3575 84° East  Level FlightAware Approximate
10:23PM 50.4058 -15.1334 84° East  Level FlightAware Approximate
10:24PM 50.4194 -14.9091 84° East  Level FlightAware Approximate
10:25PM 50.4327 -14.6846 85° East  Level FlightAware Approximate
10:26PM 50.4455 -14.4601 85° East  Level FlightAware Approximate
10:27PM 50.4578 -14.2354 85° East  Level FlightAware Approximate
10:28PM 50.4698 -14.0106 85° East  Level FlightAware Approximate
10:29PM 50.4813 -13.7857 85° East  Level FlightAware Approximate
10:30PM 50.4923 -13.5607 85° East  Level FlightAware Approximate
10:31PM 50.5030 -13.3356 86° East  Level FlightAware Approximate
10:32PM 50.5132 -13.1104 86° East  Level FlightAware Approximate
10:33PM 50.5229 -12.8851 86° East  Level FlightAware Approximate
10:34PM 50.5323 -12.6597 86° East  Level FlightAware Approximate
10:35PM 50.5421 -12.4343 86° East  Level FlightAware Approximate
10:36PM 50.5517 -12.2088 86° East  Level FlightAware Approximate
10:37PM 50.5608 -11.9833 86° East  Level FlightAware Approximate
10:38PM 50.5695 -11.7576 86° East  Level FlightAware Approximate
10:39PM 50.5778 -11.5319 87° East  Level FlightAware Approximate
10:40PM 50.5856 -11.3061 87° East  Level FlightAware Approximate
10:41PM 50.5930 -11.0802 87° East  Level FlightAware Approximate
10:42PM 50.5999 -10.8543 87° East  Level FlightAware Approximate
10:43PM 50.6065 -10.6283 87° East  Level FlightAware Approximate
10:44PM 50.6125 -10.4023 87° East  Level FlightAware Approximate
10:45PM 50.6182 -10.1761 88° East  Level FlightAware Approximate
10:46PM 50.6234 -9.9500 88° East  Level FlightAware Approximate
10:47PM 50.6281 -9.7237 88° East  Level FlightAware Approximate
10:48PM 50.6325 -9.4975 88° East  Level FlightAware Approximate
10:49PM 50.6363 -9.2712 88° East  Level FlightAware Approximate
10:50PM 50.6398 -9.0448 89° East  Level FlightAware Approximate
10:50PM 50.6450 -8.9889 89° East 1 1 45,000  Level FlightAware UK
10:51PM 50.6428 -8.8185 89° East  Level FlightAware Approximate
10:51PM 50.6553 -8.8793 82° East 496 571 45,000  Level FlightAware UK
10:51PM 50.6655 -8.7699 82° East 494 568 45,000  Level FlightAware UK
10:52PM 50.6754 -8.6606 82° East 492 566 45,000  Level FlightAware UK
10:52PM 50.6854 -8.5507 82° East 492 566 45,000  Level FlightAware UK
10:53PM 50.6969 -8.4196 82° East 494 568 45,000  Level FlightAware UK
10:53PM 50.7081 -8.2882 82° East 494 568 45,000  Level FlightAware UK
10:54PM 50.7192 -8.1577 82° East 494 568 45,000  Level FlightAware UK
10:54PM 50.7288 -8.0478 82° East 494 568 45,000  Level FlightAware UK
10:55PM 50.7378 -7.9390 82° East 490 564 45,000  Level FlightAware UK
10:55PM 50.7467 -7.8295 83° East 490 564 45,000  Level FlightAware UK
10:56PM 50.7555 -7.7204 83° East 492 566 45,000  Level FlightAware UK
10:56PM 50.7657 -7.5888 83° East 494 568 45,000  Level FlightAware UK
10:57PM 50.7746 -7.4785 83° East 496 571 45,000  Level FlightAware UK
10:57PM 50.7833 -7.3683 83° East 496 571 45,000  Level FlightAware UK
10:58PM 50.7917 -7.2583 83° East 494 568 45,000  Level FlightAware UK
10:58PM 50.8002 -7.1487 83° East 496 571 45,000  Level FlightAware UK
10:59PM 50.8085 -7.0395 83° East 496 571 45,000  Level FlightAware UK
10:59PM 50.8170 -6.9306 83° East 494 568 45,000  Level FlightAware UK
11:00PM 50.8249 -6.8219 83° East 494 568 45,000  Level FlightAware UK
11:00PM 50.8328 -6.7124 83° East 492 566 45,000  Level FlightAware UK
11:01PM 50.8403 -6.6029 84° East 494 568 45,000  Level FlightAware UK
11:01PM 50.8481 -6.4939 83° East 494 568 45,000  Level FlightAware UK
11:02PM 50.8572 -6.3639 84° East 492 566 45,000  Level FlightAware UK
11:03PM 50.8647 -6.2549 84° East 494 568 45,000  Level FlightAware UK
11:03PM 50.8718 -6.1455 84° East 494 568 45,000  Level FlightAware UK
11:04PM 50.8796 -6.0348 84° East 494 568 45,000  Level FlightAware UK
11:04PM 50.8883 -5.9040 84° East 494 568 45,000  Level FlightAware UK
11:05PM 50.8954 -5.7937 84° East 496 571 45,000  Level FlightAware UK
11:05PM 50.9022 -5.6842 84° East 494 568 45,000  Level FlightAware UK
11:06PM 50.9091 -5.5746 84° East 494 568 45,000  Level FlightAware UK
11:06PM 50.9172 -5.4444 84° East 492 566 45,000  Level FlightAware UK
11:07PM 50.9250 -5.3149 85° East 492 566 45,000  Level FlightAware UK
11:07PM 50.9313 -5.2062 85° East 494 568 45,000  Level FlightAware UK
11:08PM 50.9376 -5.0971 85° East 494 568 45,000  Level FlightAware UK
11:08PM 50.9438 -4.9877 85° East 492 566 45,000  Level FlightAware UK
11:09PM 50.9502 -4.8784 85° East 494 568 45,000  Level FlightAware UK
11:09PM 50.9563 -4.7681 85° East 494 568 45,000  Level FlightAware UK
11:10PM 50.9622 -4.6578 85° East 494 568 45,000  Level FlightAware UK
11:10PM 50.9692 -4.5261 85° East 494 568 45,000  Level FlightAware UK
11:11PM 50.9749 -4.4163 85° East 492 566 45,000  Level FlightAware UK
11:11PM 50.9807 -4.3068 85° East 492 566 45,000  Level FlightAware UK
11:12PM 50.9861 -4.1972 85° East 492 566 45,000  Level FlightAware UK
11:12PM 50.9915 -4.0877 86° East 492 566 45,000  Level FlightAware UK
11:13PM 50.9971 -3.9773 85° East 494 568 45,000  Level FlightAware UK
11:13PM 51.0024 -3.8659 86° East 492 566 45,000  Level FlightAware UK
11:14PM 51.0086 -3.7339 86° East 494 568 45,000  Level FlightAware UK
11:15PM 51.0136 -3.6225 86° East 496 571 45,000  Level FlightAware UK
11:15PM 51.0185 -3.5106 86° East 494 568 45,000  Level FlightAware UK
11:16PM 51.0233 -3.3999 86° East 494 568 45,000  Level FlightAware UK
11:16PM 51.0281 -3.2894 86° East 496 571 45,000  Level FlightAware UK
11:17PM 51.0327 -3.1789 86° East 494 568 45,000  Level FlightAware UK
11:17PM 51.0371 -3.0676 86° East 496 571 45,000  Level FlightAware UK
11:18PM 51.0415 -2.9565 86° East 494 568 45,000  Level FlightAware UK
11:18PM 51.0466 -2.8244 86° East 492 566 45,000  Level FlightAware UK
11:19PM 51.0517 -2.6922 86° East 496 571 45,000  Level FlightAware UK
11:19PM 51.0563 -2.5611 87° East 494 568 45,000  Level FlightAware UK
11:20PM 51.0602 -2.4498 87° East 494 568 45,000  Level FlightAware UK
11:20PM 51.0641 -2.3392 87° East 496 571 45,000  Level FlightAware UK
11:21PM 51.0678 -2.2282 87° East 494 568 45,000  Level FlightAware UK
11:21PM 51.0714 -2.1176 87° East 492 566 45,000  Level FlightAware UK
11:22PM 51.0754 -1.9861 87° East 492 566 45,000  Level FlightAware UK
11:22PM 51.0789 -1.8762 87° East 496 571 45,000  Level FlightAware UK
11:23PM 51.0821 -1.7650 87° East 496 571 45,000  Level FlightAware UK
11:24PM 51.0859 -1.6332 87° East 494 568 45,000  Level FlightAware UK
11:24PM 51.0894 -1.5016 88° East 494 568 45,000  Level FlightAware UK
11:25PM 51.0923 -1.3905 88° East 496 571 45,000  Level FlightAware UK
11:25PM 51.0956 -1.2593 88° East 496 571 45,000  Level FlightAware UK
11:26PM 51.0983 -1.1479 88° East 496 571 45,000  Level FlightAware UK
11:26PM 51.1008 -1.0369 88° East 494 568 45,000  Level FlightAware UK
11:27PM 51.1032 -0.9262 88° East 494 568 45,000  Level FlightAware UK
11:27PM 51.1056 -0.8156 88° East 494 568 45,000  Level FlightAware UK
11:28PM 51.1079 -0.7050 88° East 492 566 45,000  Level FlightAware UK
11:28PM 51.1101 -0.5951 88° East 494 568 45,000  Level FlightAware UK
11:29PM 51.1120 -0.4841 88° East 494 568 45,000  Level FlightAware UK
11:29PM 51.1143 -0.3512 88° East 496 571 45,000  Level FlightAware UK
11:30PM 51.1165 -0.2193 88° East 494 568 45,000  Level FlightAware UK
11:31PM 51.1171 -0.0874 90° East 494 568 45,000  Level FlightAware UK
11:31PM 51.1176 0.0228 90° East 496 571 45,000  Level FlightAware UK
11:32PM 51.1178 0.1337 90° East 494 568 45,000  Level FlightAware UK
11:32PM 51.1179 0.2447 90° East 496 571 45,000  Level FlightAware UK
11:33PM 51.1177 0.3559 90° East 494 568 45,000  Level FlightAware UK
11:33PM 51.1178 0.4662 90° East 496 571 45,000  Level FlightAware UK
11:34PM 51.1175 0.5763 90° East 496 571 45,000  Level FlightAware UK
11:34PM 51.1172 0.6861 90° East 494 568 45,000  Level FlightAware UK
11:35PM 51.1168 0.7967 90° East 496 571 45,000  Level FlightAware UK
11:35PM 51.1161 0.9278 90° East 496 571 45,000  Level FlightAware UK
11:36PM 51.1156 1.0374 90° East 494 568 45,000  Level FlightAware UK
11:36PM 51.1148 1.1471 91° East 496 571 45,000  Level FlightAware UK
11:37PM 51.1139 1.2581 91° East 494 568 45,000  Level FlightAware UK
11:37PM 51.1130 1.3675 91° East 496 571 45,000  Level FlightAware UK
11:38PM 51.1091 1.4764 93° East 496 571 45,000  Level FlightAware UK
11:38PM 51.0978 1.5849 99° East 494 568 45,000  Level FlightAware UK
11:39PM 51.0835 1.6919 102° East 496 571 45,000  Level FlightAware UK
11:39PM 51.0690 1.7996 102° East 496 571 45,000  Level FlightAware UK
11:40PM 51.0545 1.9063 102° East 494 568 45,000  Level FlightAware UK
11:40PM 51.0400 2.0131 102° East 496 571 45,000  Level FlightAware UK
11:41PM 51.0252 2.1220 102° East 494 568 45,000  Level FlightAware UK
11:41PM 51.0104 2.2288 102° East 494 568 45,000  Level FlightAware UK
11:42PM 50.9926 2.3555 103° East 496 571 45,000  Level FlightAware UK
11:42PM 50.9776 2.4625 103° East 496 571 45,000  Level FlightAware UK
11:43PM 50.9623 2.5701 103° East 496 571 45,000  Level FlightAware UK
11:43PM 50.9471 2.6774 103° East 496 571 45,000  Level FlightAware UK
11:44PM 50.9317 2.7846 103° East 498 573 45,000  Level FlightAware UK
11:44PM 50.9137 2.9121 103° East 494 568 45,000  Level FlightAware UK
11:45PM 50.8987 3.0179 103° East 496 571 45,000  Level FlightAware UK
11:45PM 50.8839 3.1236 102° East 496 571 45,000  Level FlightAware UK
11:46PM 50.8689 3.2295 103° East 496 571 45,000  Level FlightAware UK
11:46PM 50.8537 3.3355 103° East 498 573 45,000  Level FlightAware UK
11:47PM 50.8372 3.4417 104° East 496 571 45,000  Level FlightAware UK
11:47PM 50.8213 3.5472 103° East 498 573 45,000  Level FlightAware UK
11:48PM 50.8057 3.6523 103° East 494 568 45,000  Level FlightAware UK
11:48PM 50.7897 3.7571 104° East 494 568 45,000  Level FlightAware UK
11:49PM 50.7734 3.8616 104° East 496 571 45,000  Level FlightAware UK
11:49PM 50.7570 3.9664 104° East 496 571 45,000  Level FlightAware UK
11:50PM 50.7404 4.0713 104° East 496 571 45,000  Level FlightAware UK
11:50PM 50.7240 4.1767 104° East 498 573 45,000  Level FlightAware UK
11:51PM 50.7075 4.2829 104° East 496 571 45,000  Level FlightAware UK
11:51PM 50.6906 4.3880 104° East 494 568 45,000 -720 Level FlightAware UK
11:52PM 50.6731 4.4929 105° East 498 573 44,300 -1,740 Descending FlightAware UK
11:52PM 50.6556 4.5977 105° East 492 566 43,300 -2,100 Descending FlightAware UK
11:53PM 50.6390 4.7029 104° East 494 568 42,200 -2,220 Descending FlightAware UK
11:55PM 50.6090 5.0580 106° East  Level FlightAware Approximate
12:02AM 50.3573 6.5825 104° East  Level FlightAware Approximate
12:03AM 50.3226 6.8008 104° East  Level FlightAware Approximate
12:04AM 50.2875 7.0188 104° East  Level FlightAware Approximate
12:05AM 50.2520 7.2365 104° East  Level FlightAware Approximate
12:06AM 50.2141 7.4530 106° East  Level FlightAware Approximate
12:07AM 50.1752 7.6688 104° East  Level FlightAware Approximate
12:08AM 50.1408 7.8864 104° East  Level FlightAware Approximate
12:09AM 50.0975 8.0988 104° East  Level FlightAware Approximate
12:10AM 50.0666 8.3168 103° East  Level FlightAware Approximate
12:11AM 50.0257 8.5305 111° Southeast  Level FlightAware Approximate
12:12AM 50.0264 8.5431 111° Southeast  Level Estimated
12:13AM 50.0264 8.5431 111° Southeast  Level Estimated
12:14AM 50.0264 8.5431 111° Southeast  Level Estimated
12:15AM 50.0264 8.5431 111° Southeast  Level Estimated
12:16AM 50.0264 8.5431 111° Southeast  Level Estimated
12:17AM 50.0264 8.5431 111° Southeast  Level Estimated
12:18AM 50.0264 8.5431 111° Southeast  Level Estimated
12:19AM 50.0264 8.5431 111° Southeast  Level Estimated
12:20AM 50.0264 8.5431 111° Southeast  Level Estimated
12:21AM 50.0264 8.5431 111° Southeast  Level Estimated
12:22AM 50.0264 8.5431 111° Southeast  Level Estimated
12:23AM 50.0264 8.5431 111° Southeast  Level Estimated
12:24AM 50.0264 8.5431 111° Southeast  Level Estimated
12:25AM 50.0264 8.5431 111° Southeast  Level Estimated
12:26AM 50.0264 8.5431 111° Southeast  Level Estimated
12:27AM 50.0264 8.5431 111° Southeast  Level Estimated
12:28AM 50.0264 8.5431 111° Southeast  Level Estimated
12:29AM 50.0264 8.5431 111° Southeast  Level Estimated
12:30AM 50.0264 8.5431 111° Southeast  Level Estimated
12:31AM 50.0264 8.5431 111° Southeast  Level Estimated
12:32AM 50.0264 8.5431 111° Southeast  Level Estimated
12:33AM 50.0264 8.5431 111° Southeast  Level Estimated
12:34AM 50.0264 8.5431 111° Southeast  Level Estimated
12:35AM 50.0264 8.5431 111° Southeast  Level Estimated
12:36AM 50.0264 8.5431 111° Southeast  Level Estimated
12:37AM 50.0264 8.5431 111° Southeast  Level Estimated
12:38AM 50.0264 8.5431 111° Southeast  Level Estimated
12:39AM 50.0264 8.5431 111° Southeast  Level Estimated